Astatula, Florida
Current Conditions -  °F | °C
As of 4:53 PM on Saturday 25 Oct 2014 (Local Time) from KLEE Reporting Station
Clear Clear  
Wind Chill: 78°   Ceiling: Unl
Heat Index: 78°   Visibility: 10mi
Dew Point: 45°   Wind: 7mph
Humidity: 31%   Direction: 300°WNW
Pressure: 29.96"   Gusts: NA
Location:  28.71°N, 81.73°W
Report Text: KLEE 252053Z AUTO 30006KT 10SM CLR 26/07 A2996 RMK AO2 SLP143 T02560072 56010
Loading
Personal Weather Stations






























Interactive Weather Map New forecast layout! Learn more

10-Day Weather Forecast

Advertisements
Track Severe Weather on mobile